sensor_id;sensor_type;location;lat;lon;timestamp;temperature;humidity
14723;DHT22;7452;55.594;12.986;2022-12-18T00:01:56;0.40;99.90
14723;DHT22;7452;55.594;12.986;2022-12-18T00:04:46;0.30;99.90
14723;DHT22;7452;55.594;12.986;2022-12-18T00:07:13;0.30;99.90
14723;DHT22;7452;55.594;12.986;2022-12-18T00:09:50;0.30;99.90
14723;DHT22;7452;55.594;12.986;2022-12-18T00:12:35;0.30;99.90
14723;DHT22;7452;55.594;12.986;2022-12-18T00:15:02;0.30;99.90
14723;DHT22;7452;55.594;12.986;2022-12-18T00:17:46;0.20;99.90
14723;DHT22;7452;55.594;12.986;2022-12-18T00:20:20;0.20;99.90
14723;DHT22;7452;55.594;12.986;2022-12-18T00:23:08;0.30;99.90
14723;DHT22;7452;55.594;12.986;2022-12-18T00:25:36;0.30;99.90
14723;DHT22;7452;55.594;12.986;2022-12-18T00:28:12;0.30;99.90
14723;DHT22;7452;55.594;12.986;2022-12-18T00:30:40;0.20;99.90
14723;DHT22;7452;55.594;12.986;2022-12-18T00:33:09;0.30;99.90
14723;DHT22;7452;55.594;12.986;2022-12-18T00:36:02;0.40;99.90
14723;DHT22;7452;55.594;12.986;2022-12-18T00:41:55;0.40;99.90
14723;DHT22;7452;55.594;12.986;2022-12-18T00:44:40;0.40;99.90
14723;DHT22;7452;55.594;12.986;2022-12-18T00:47:11;0.20;99.90
14723;DHT22;7452;55.594;12.986;2022-12-18T00:49:42;0.30;99.90
14723;DHT22;7452;55.594;12.986;2022-12-18T00:52:20;0.30;99.90
14723;DHT22;7452;55.594;12.986;2022-12-18T00:54:52;0.30;99.90
14723;DHT22;7452;55.594;12.986;2022-12-18T00:57:21;0.20;99.90
14723;DHT22;7452;55.594;12.986;2022-12-18T01:00:09;0.20;99.90
14723;DHT22;7452;55.594;12.986;2022-12-18T01:02:45;0.20;99.90
14723;DHT22;7452;55.594;12.986;2022-12-18T01:05:14;0.20;99.90
14723;DHT22;7452;55.594;12.986;2022-12-18T01:07:55;0.30;99.90
14723;DHT22;7452;55.594;12.986;2022-12-18T01:10:27;0.30;99.90
14723;DHT22;7452;55.594;12.986;2022-12-18T01:13:01;0.40;99.90
14723;DHT22;7452;55.594;12.986;2022-12-18T01:15:32;0.40;99.90
14723;DHT22;7452;55.594;12.986;2022-12-18T01:17:59;0.40;99.90
14723;DHT22;7452;55.594;12.986;2022-12-18T01:20:29;0.30;99.90
14723;DHT22;7452;55.594;12.986;2022-12-18T01:23:10;0.40;99.90
14723;DHT22;7452;55.594;12.986;2022-12-18T01:25:57;0.30;99.90
14723;DHT22;7452;55.594;12.986;2022-12-18T01:28:30;0.30;99.90
14723;DHT22;7452;55.594;12.986;2022-12-18T01:31:10;0.30;99.90
14723;DHT22;7452;55.594;12.986;2022-12-18T01:33:39;0.30;99.90
14723;DHT22;7452;55.594;12.986;2022-12-18T01:36:16;0.30;99.90
14723;DHT22;7452;55.594;12.986;2022-12-18T01:38:51;0.30;99.90
14723;DHT22;7452;55.594;12.986;2022-12-18T01:41:23;0.30;99.90
14723;DHT22;7452;55.594;12.986;2022-12-18T01:43:53;0.30;99.90
14723;DHT22;7452;55.594;12.986;2022-12-18T01:46:22;0.30;99.90
14723;DHT22;7452;55.594;12.986;2022-12-18T01:48:51;0.20;99.90
14723;DHT22;7452;55.594;12.986;2022-12-18T01:51:21;0.20;99.90
14723;DHT22;7452;55.594;12.986;2022-12-18T01:54:00;0.30;99.90
14723;DHT22;7452;55.594;12.986;2022-12-18T01:56:32;0.20;99.90
14723;DHT22;7452;55.594;12.986;2022-12-18T01:59:02;0.20;99.90
14723;DHT22;7452;55.594;12.986;2022-12-18T02:01:33;0.30;99.90
14723;DHT22;7452;55.594;12.986;2022-12-18T02:04:19;0.20;99.90
14723;DHT22;7452;55.594;12.986;2022-12-18T02:06:50;0.30;99.90
14723;DHT22;7452;55.594;12.986;2022-12-18T02:09:26;0.40;99.90
14723;DHT22;7452;55.594;12.986;2022-12-18T02:12:16;0.20;99.90
14723;DHT22;7452;55.594;12.986;2022-12-18T02:14:52;0.20;99.90
14723;DHT22;7452;55.594;12.986;2022-12-18T02:17:30;0.20;99.90
14723;DHT22;7452;55.594;12.986;2022-12-18T02:20:13;0.20;99.90
14723;DHT22;7452;55.594;12.986;2022-12-18T02:22:55;0.20;99.90
14723;DHT22;7452;55.594;12.986;2022-12-18T02:26:01;0.20;99.90
14723;DHT22;7452;55.594;12.986;2022-12-18T02:28:36;0.20;99.90
14723;DHT22;7452;55.594;12.986;2022-12-18T02:31:16;0.20;99.90
14723;DHT22;7452;55.594;12.986;2022-12-18T02:33:46;0.30;99.90
14723;DHT22;7452;55.594;12.986;2022-12-18T02:36:21;0.40;99.90
14723;DHT22;7452;55.594;12.986;2022-12-18T02:38:58;0.30;99.90
14723;DHT22;7452;55.594;12.986;2022-12-18T02:41:31;0.30;99.90
14723;DHT22;7452;55.594;12.986;2022-12-18T02:44:08;0.40;99.90
14723;DHT22;7452;55.594;12.986;2022-12-18T02:46:48;0.40;99.90
14723;DHT22;7452;55.594;12.986;2022-12-18T02:49:31;0.40;99.90
14723;DHT22;7452;55.594;12.986;2022-12-18T02:52:20;0.40;99.90
14723;DHT22;7452;55.594;12.986;2022-12-18T02:54:57;0.40;99.90
14723;DHT22;7452;55.594;12.986;2022-12-18T02:57:40;0.40;99.90
14723;DHT22;7452;55.594;12.986;2022-12-18T03:00:12;0.40;99.90
14723;DHT22;7452;55.594;12.986;2022-12-18T03:02:55;0.40;99.90
14723;DHT22;7452;55.594;12.986;2022-12-18T03:05:33;0.40;99.90
14723;DHT22;7452;55.594;12.986;2022-12-18T03:08:08;0.50;99.90
14723;DHT22;7452;55.594;12.986;2022-12-18T03:10:58;0.40;99.90
14723;DHT22;7452;55.594;12.986;2022-12-18T03:13:33;0.40;99.90
14723;DHT22;7452;55.594;12.986;2022-12-18T03:16:04;0.40;99.90
14723;DHT22;7452;55.594;12.986;2022-12-18T03:18:36;0.50;99.90
14723;DHT22;7452;55.594;12.986;2022-12-18T03:21:18;0.50;99.90
14723;DHT22;7452;55.594;12.986;2022-12-18T03:23:51;0.50;99.90
14723;DHT22;7452;55.594;12.986;2022-12-18T03:26:24;0.60;99.90
14723;DHT22;7452;55.594;12.986;2022-12-18T03:29:04;0.60;99.90
14723;DHT22;7452;55.594;12.986;2022-12-18T03:31:34;0.60;99.90
14723;DHT22;7452;55.594;12.986;2022-12-18T03:34:05;0.60;99.90
14723;DHT22;7452;55.594;12.986;2022-12-18T03:36:36;0.60;99.90
14723;DHT22;7452;55.594;12.986;2022-12-18T03:39:06;0.50;99.90
14723;DHT22;7452;55.594;12.986;2022-12-18T03:41:46;0.50;99.90
14723;DHT22;7452;55.594;12.986;2022-12-18T03:44:29;0.50;99.90
14723;DHT22;7452;55.594;12.986;2022-12-18T03:47:08;0.50;99.90
14723;DHT22;7452;55.594;12.986;2022-12-18T03:49:41;0.50;99.90
14723;DHT22;7452;55.594;12.986;2022-12-18T03:52:25;0.50;99.90
14723;DHT22;7452;55.594;12.986;2022-12-18T03:55:00;0.50;99.90
14723;DHT22;7452;55.594;12.986;2022-12-18T03:57:43;0.50;99.90
14723;DHT22;7452;55.594;12.986;2022-12-18T04:00:17;0.50;99.90
14723;DHT22;7452;55.594;12.986;2022-12-18T04:02:57;0.60;99.90
14723;DHT22;7452;55.594;12.986;2022-12-18T04:05:40;0.50;99.90
14723;DHT22;7452;55.594;12.986;2022-12-18T04:08:20;0.50;99.90
14723;DHT22;7452;55.594;12.986;2022-12-18T04:10:55;0.50;99.90
14723;DHT22;7452;55.594;12.986;2022-12-18T04:13:29;0.50;99.90
14723;DHT22;7452;55.594;12.986;2022-12-18T04:16:06;0.50;99.90
14723;DHT22;7452;55.594;12.986;2022-12-18T04:18:40;0.50;99.90
14723;DHT22;7452;55.594;12.986;2022-12-18T04:21:10;0.50;99.90
14723;DHT22;7452;55.594;12.986;2022-12-18T04:23:38;0.50;99.90
14723;DHT22;7452;55.594;12.986;2022-12-18T04:26:14;0.50;99.90
14723;DHT22;7452;55.594;12.986;2022-12-18T04:28:45;0.50;99.90
14723;DHT22;7452;55.594;12.986;2022-12-18T04:31:37;0.60;99.90
14723;DHT22;7452;55.594;12.986;2022-12-18T04:34:08;0.60;99.90
14723;DHT22;7452;55.594;12.986;2022-12-18T04:36:36;0.60;99.90
14723;DHT22;7452;55.594;12.986;2022-12-18T04:39:05;0.60;99.90
14723;DHT22;7452;55.594;12.986;2022-12-18T04:41:33;0.50;99.90
14723;DHT22;7452;55.594;12.986;2022-12-18T04:44:05;0.70;99.90
14723;DHT22;7452;55.594;12.986;2022-12-18T04:46:45;0.50;99.90
14723;DHT22;7452;55.594;12.986;2022-12-18T04:49:23;0.50;99.90
14723;DHT22;7452;55.594;12.986;2022-12-18T04:51:52;0.60;99.90
14723;DHT22;7452;55.594;12.986;2022-12-18T04:54:27;0.50;99.90
14723;DHT22;7452;55.594;12.986;2022-12-18T04:56:59;0.50;99.90
14723;DHT22;7452;55.594;12.986;2022-12-18T04:59:26;0.50;99.90
14723;DHT22;7452;55.594;12.986;2022-12-18T05:02:03;0.40;99.90
14723;DHT22;7452;55.594;12.986;2022-12-18T05:04:30;0.50;99.90
14723;DHT22;7452;55.594;12.986;2022-12-18T05:06:58;0.50;99.90
14723;DHT22;7452;55.594;12.986;2022-12-18T05:09:39;0.50;99.90
14723;DHT22;7452;55.594;12.986;2022-12-18T05:12:09;0.50;99.90
14723;DHT22;7452;55.594;12.986;2022-12-18T05:14:42;0.50;99.90
14723;DHT22;7452;55.594;12.986;2022-12-18T05:17:26;0.50;99.90
14723;DHT22;7452;55.594;12.986;2022-12-18T05:19:55;0.50;99.90
14723;DHT22;7452;55.594;12.986;2022-12-18T05:22:24;0.50;99.90
14723;DHT22;7452;55.594;12.986;2022-12-18T05:24:52;0.60;99.90
14723;DHT22;7452;55.594;12.986;2022-12-18T05:27:23;0.60;99.90
14723;DHT22;7452;55.594;12.986;2022-12-18T05:29:53;0.60;99.90
14723;DHT22;7452;55.594;12.986;2022-12-18T05:32:21;0.70;99.90
14723;DHT22;7452;55.594;12.986;2022-12-18T05:34:54;0.70;99.90
14723;DHT22;7452;55.594;12.986;2022-12-18T05:37:28;0.70;99.90
14723;DHT22;7452;55.594;12.986;2022-12-18T05:39:57;0.70;99.90
14723;DHT22;7452;55.594;12.986;2022-12-18T05:42:32;0.60;99.90
14723;DHT22;7452;55.594;12.986;2022-12-18T05:45:01;0.60;99.90
14723;DHT22;7452;55.594;12.986;2022-12-18T05:47:29;0.60;99.90
14723;DHT22;7452;55.594;12.986;2022-12-18T05:50:01;0.60;99.90
14723;DHT22;7452;55.594;12.986;2022-12-18T05:52:30;0.60;99.90
14723;DHT22;7452;55.594;12.986;2022-12-18T05:54:57;0.60;99.90
14723;DHT22;7452;55.594;12.986;2022-12-18T05:57:30;0.60;99.90
14723;DHT22;7452;55.594;12.986;2022-12-18T06:00:00;0.60;99.90
14723;DHT22;7452;55.594;12.986;2022-12-18T06:02:28;0.70;99.90
14723;DHT22;7452;55.594;12.986;2022-12-18T06:04:55;0.70;99.90
14723;DHT22;7452;55.594;12.986;2022-12-18T06:07:28;0.60;99.90
14723;DHT22;7452;55.594;12.986;2022-12-18T06:09:56;0.50;99.90
14723;DHT22;7452;55.594;12.986;2022-12-18T06:12:25;0.60;99.90
14723;DHT22;7452;55.594;12.986;2022-12-18T06:14:55;0.60;99.90
14723;DHT22;7452;55.594;12.986;2022-12-18T06:17:33;0.60;99.90
14723;DHT22;7452;55.594;12.986;2022-12-18T06:20:04;0.60;99.90
14723;DHT22;7452;55.594;12.986;2022-12-18T06:22:34;0.60;99.90
14723;DHT22;7452;55.594;12.986;2022-12-18T06:25:14;0.60;99.90
14723;DHT22;7452;55.594;12.986;2022-12-18T06:27:48;0.60;99.90
14723;DHT22;7452;55.594;12.986;2022-12-18T06:30:21;0.40;99.90
14723;DHT22;7452;55.594;12.986;2022-12-18T06:33:01;0.60;99.90
14723;DHT22;7452;55.594;12.986;2022-12-18T06:35:40;0.50;99.90
14723;DHT22;7452;55.594;12.986;2022-12-18T06:38:13;0.50;99.90
14723;DHT22;7452;55.594;12.986;2022-12-18T06:40:55;0.50;99.90
14723;DHT22;7452;55.594;12.986;2022-12-18T06:43:38;0.50;99.90
14723;DHT22;7452;55.594;12.986;2022-12-18T06:46:09;0.50;99.90
14723;DHT22;7452;55.594;12.986;2022-12-18T06:48:38;0.50;99.90
14723;DHT22;7452;55.594;12.986;2022-12-18T06:51:06;0.50;99.90
14723;DHT22;7452;55.594;12.986;2022-12-18T06:53:40;0.50;99.90
14723;DHT22;7452;55.594;12.986;2022-12-18T06:56:11;0.50;99.90
14723;DHT22;7452;55.594;12.986;2022-12-18T06:58:38;0.50;99.90
14723;DHT22;7452;55.594;12.986;2022-12-18T07:01:12;0.50;99.90
14723;DHT22;7452;55.594;12.986;2022-12-18T07:03:56;0.50;99.90
14723;DHT22;7452;55.594;12.986;2022-12-18T07:06:36;0.40;99.90
14723;DHT22;7452;55.594;12.986;2022-12-18T07:09:06;0.60;99.90
14723;DHT22;7452;55.594;12.986;2022-12-18T07:11:34;0.40;99.90
14723;DHT22;7452;55.594;12.986;2022-12-18T07:14:08;0.50;99.90
14723;DHT22;7452;55.594;12.986;2022-12-18T07:16:39;0.60;99.90
14723;DHT22;7452;55.594;12.986;2022-12-18T07:19:12;0.50;99.90
14723;DHT22;7452;55.594;12.986;2022-12-18T07:21:39;0.60;99.90
14723;DHT22;7452;55.594;12.986;2022-12-18T07:24:11;0.50;99.90
14723;DHT22;7452;55.594;12.986;2022-12-18T07:26:46;0.60;99.90
14723;DHT22;7452;55.594;12.986;2022-12-18T07:29:14;0.60;99.90
14723;DHT22;7452;55.594;12.986;2022-12-18T07:31:44;0.60;99.90
14723;DHT22;7452;55.594;12.986;2022-12-18T07:34:14;0.60;99.90
14723;DHT22;7452;55.594;12.986;2022-12-18T07:36:52;0.60;99.90
14723;DHT22;7452;55.594;12.986;2022-12-18T07:39:38;0.60;99.90
14723;DHT22;7452;55.594;12.986;2022-12-18T07:42:05;0.60;99.90
14723;DHT22;7452;55.594;12.986;2022-12-18T07:44:52;0.70;99.90
14723;DHT22;7452;55.594;12.986;2022-12-18T07:47:20;0.70;99.90
14723;DHT22;7452;55.594;12.986;2022-12-18T07:49:47;0.70;99.90
14723;DHT22;7452;55.594;12.986;2022-12-18T07:52:15;0.70;99.90
14723;DHT22;7452;55.594;12.986;2022-12-18T07:54:51;0.80;99.90
14723;DHT22;7452;55.594;12.986;2022-12-18T07:57:27;0.70;99.90
14723;DHT22;7452;55.594;12.986;2022-12-18T07:59:54;0.80;99.90
14723;DHT22;7452;55.594;12.986;2022-12-18T08:02:25;0.80;99.90
14723;DHT22;7452;55.594;12.986;2022-12-18T08:04:54;0.80;99.90
14723;DHT22;7452;55.594;12.986;2022-12-18T08:07:30;0.80;99.90
14723;DHT22;7452;55.594;12.986;2022-12-18T08:10:16;0.90;99.90
14723;DHT22;7452;55.594;12.986;2022-12-18T08:12:53;0.80;99.90
14723;DHT22;7452;55.594;12.986;2022-12-18T08:15:41;0.90;99.90
14723;DHT22;7452;55.594;12.986;2022-12-18T08:18:11;1.00;99.90
14723;DHT22;7452;55.594;12.986;2022-12-18T08:20:40;1.10;99.90
14723;DHT22;7452;55.594;12.986;2022-12-18T08:23:08;1.10;99.90
14723;DHT22;7452;55.594;12.986;2022-12-18T08:25:39;1.10;99.90
14723;DHT22;7452;55.594;12.986;2022-12-18T08:28:08;1.10;99.90
14723;DHT22;7452;55.594;12.986;2022-12-18T08:30:36;1.10;99.90
14723;DHT22;7452;55.594;12.986;2022-12-18T08:33:12;1.10;99.90
14723;DHT22;7452;55.594;12.986;2022-12-18T08:35:44;1.20;99.90
14723;DHT22;7452;55.594;12.986;2022-12-18T08:38:30;1.20;99.90
14723;DHT22;7452;55.594;12.986;2022-12-18T08:41:24;1.20;99.90
14723;DHT22;7452;55.594;12.986;2022-12-18T08:44:09;1.30;99.90
14723;DHT22;7452;55.594;12.986;2022-12-18T08:46:56;1.30;99.90
14723;DHT22;7452;55.594;12.986;2022-12-18T08:49:24;1.30;99.90
14723;DHT22;7452;55.594;12.986;2022-12-18T08:52:09;1.30;99.90
14723;DHT22;7452;55.594;12.986;2022-12-18T08:54:42;1.30;99.90
14723;DHT22;7452;55.594;12.986;2022-12-18T08:57:22;1.30;99.90
14723;DHT22;7452;55.594;12.986;2022-12-18T08:59:54;1.30;99.90
14723;DHT22;7452;55.594;12.986;2022-12-18T09:02:27;1.30;99.90
14723;DHT22;7452;55.594;12.986;2022-12-18T09:04:57;1.30;99.90
14723;DHT22;7452;55.594;12.986;2022-12-18T09:07:29;1.30;99.90
14723;DHT22;7452;55.594;12.986;2022-12-18T09:10:01;1.30;99.90
14723;DHT22;7452;55.594;12.986;2022-12-18T09:12:33;1.40;99.90
14723;DHT22;7452;55.594;12.986;2022-12-18T09:15:03;1.40;99.90
14723;DHT22;7452;55.594;12.986;2022-12-18T09:17:33;1.50;99.90
14723;DHT22;7452;55.594;12.986;2022-12-18T09:20:17;1.60;99.90
14723;DHT22;7452;55.594;12.986;2022-12-18T09:23:00;1.70;99.90
14723;DHT22;7452;55.594;12.986;2022-12-18T09:25:30;1.70;99.90
14723;DHT22;7452;55.594;12.986;2022-12-18T09:28:02;1.70;99.90
14723;DHT22;7452;55.594;12.986;2022-12-18T09:30:31;1.70;99.90
14723;DHT22;7452;55.594;12.986;2022-12-18T09:33:07;1.80;99.90
14723;DHT22;7452;55.594;12.986;2022-12-18T09:35:36;2.00;99.90
14723;DHT22;7452;55.594;12.986;2022-12-18T09:38:08;2.00;99.90
14723;DHT22;7452;55.594;12.986;2022-12-18T09:40:43;2.00;99.90
14723;DHT22;7452;55.594;12.986;2022-12-18T09:43:17;1.90;99.90
14723;DHT22;7452;55.594;12.986;2022-12-18T09:45:50;1.70;99.90
14723;DHT22;7452;55.594;12.986;2022-12-18T09:48:29;1.60;99.90
14723;DHT22;7452;55.594;12.986;2022-12-18T09:51:08;1.50;99.90
14723;DHT22;7452;55.594;12.986;2022-12-18T09:53:39;1.50;99.90
14723;DHT22;7452;55.594;12.986;2022-12-18T09:56:18;1.50;99.90
14723;DHT22;7452;55.594;12.986;2022-12-18T09:59:03;1.50;99.90
14723;DHT22;7452;55.594;12.986;2022-12-18T10:01:35;1.50;99.90
14723;DHT22;7452;55.594;12.986;2022-12-18T10:04:08;1.50;99.90
14723;DHT22;7452;55.594;12.986;2022-12-18T10:06:47;1.40;99.90
14723;DHT22;7452;55.594;12.986;2022-12-18T10:09:27;1.40;99.90
14723;DHT22;7452;55.594;12.986;2022-12-18T10:12:02;1.40;99.90
14723;DHT22;7452;55.594;12.986;2022-12-18T10:14:46;1.30;99.90
14723;DHT22;7452;55.594;12.986;2022-12-18T10:17:28;1.30;99.90
14723;DHT22;7452;55.594;12.986;2022-12-18T10:20:03;1.30;99.90
14723;DHT22;7452;55.594;12.986;2022-12-18T10:22:50;1.40;99.90
14723;DHT22;7452;55.594;12.986;2022-12-18T10:25:31;1.40;99.90
14723;DHT22;7452;55.594;12.986;2022-12-18T10:28:09;1.40;99.90
14723;DHT22;7452;55.594;12.986;2022-12-18T10:30:47;1.40;99.90
14723;DHT22;7452;55.594;12.986;2022-12-18T10:33:20;1.20;99.90
14723;DHT22;7452;55.594;12.986;2022-12-18T10:35:48;1.20;99.90
14723;DHT22;7452;55.594;12.986;2022-12-18T10:38:24;1.20;99.90
14723;DHT22;7452;55.594;12.986;2022-12-18T10:40:54;1.10;99.90
14723;DHT22;7452;55.594;12.986;2022-12-18T10:43:31;1.10;99.90
14723;DHT22;7452;55.594;12.986;2022-12-18T10:46:12;1.10;99.90
14723;DHT22;7452;55.594;12.986;2022-12-18T10:48:54;1.00;99.90
14723;DHT22;7452;55.594;12.986;2022-12-18T10:51:27;1.00;99.90
14723;DHT22;7452;55.594;12.986;2022-12-18T10:53:59;1.00;99.90
14723;DHT22;7452;55.594;12.986;2022-12-18T10:56:36;1.10;99.90
14723;DHT22;7452;55.594;12.986;2022-12-18T10:59:11;1.20;99.90
14723;DHT22;7452;55.594;12.986;2022-12-18T11:01:52;1.20;99.90
14723;DHT22;7452;55.594;12.986;2022-12-18T11:04:33;1.30;99.90
14723;DHT22;7452;55.594;12.986;2022-12-18T11:07:03;1.20;99.90
14723;DHT22;7452;55.594;12.986;2022-12-18T11:09:36;1.20;99.90
14723;DHT22;7452;55.594;12.986;2022-12-18T11:12:21;1.30;99.90
14723;DHT22;7452;55.594;12.986;2022-12-18T11:14:56;1.30;99.90
14723;DHT22;7452;55.594;12.986;2022-12-18T11:17:39;1.20;99.90
14723;DHT22;7452;55.594;12.986;2022-12-18T11:20:27;1.20;99.90
14723;DHT22;7452;55.594;12.986;2022-12-18T11:23:01;1.20;99.90
14723;DHT22;7452;55.594;12.986;2022-12-18T11:25:33;1.10;99.90
14723;DHT22;7452;55.594;12.986;2022-12-18T11:28:03;1.00;99.90
14723;DHT22;7452;55.594;12.986;2022-12-18T11:30:39;1.10;99.90
14723;DHT22;7452;55.594;12.986;2022-12-18T11:33:19;1.10;99.90
14723;DHT22;7452;55.594;12.986;2022-12-18T11:35:55;1.00;99.90
14723;DHT22;7452;55.594;12.986;2022-12-18T11:38:33;1.10;99.90
14723;DHT22;7452;55.594;12.986;2022-12-18T11:41:07;1.10;99.90
14723;DHT22;7452;55.594;12.986;2022-12-18T11:43:44;1.00;99.90
14723;DHT22;7452;55.594;12.986;2022-12-18T11:46:23;1.10;99.90
14723;DHT22;7452;55.594;12.986;2022-12-18T11:48:57;1.10;99.90
14723;DHT22;7452;55.594;12.986;2022-12-18T11:51:29;1.10;99.90
14723;DHT22;7452;55.594;12.986;2022-12-18T11:54:04;1.20;99.90
14723;DHT22;7452;55.594;12.986;2022-12-18T11:56:53;1.20;99.90
14723;DHT22;7452;55.594;12.986;2022-12-18T11:59:33;1.20;99.90
14723;DHT22;7452;55.594;12.986;2022-12-18T12:02:29;1.20;99.90
14723;DHT22;7452;55.594;12.986;2022-12-18T12:05:24;1.20;99.90
14723;DHT22;7452;55.594;12.986;2022-12-18T12:08:00;1.20;99.90
14723;DHT22;7452;55.594;12.986;2022-12-18T12:10:46;1.20;99.90
14723;DHT22;7452;55.594;12.986;2022-12-18T12:13:26;1.20;99.90
14723;DHT22;7452;55.594;12.986;2022-12-18T12:16:39;1.20;99.90
14723;DHT22;7452;55.594;12.986;2022-12-18T12:19:32;1.30;99.90
14723;DHT22;7452;55.594;12.986;2022-12-18T12:22:13;1.20;99.90
14723;DHT22;7452;55.594;12.986;2022-12-18T12:24:56;1.30;99.90
14723;DHT22;7452;55.594;12.986;2022-12-18T12:27:39;1.30;99.90
14723;DHT22;7452;55.594;12.986;2022-12-18T12:30:17;1.40;99.90
14723;DHT22;7452;55.594;12.986;2022-12-18T12:33:09;1.40;99.90
14723;DHT22;7452;55.594;12.986;2022-12-18T12:35:51;1.30;99.90
14723;DHT22;7452;55.594;12.986;2022-12-18T12:38:24;1.40;99.90
14723;DHT22;7452;55.594;12.986;2022-12-18T12:40:59;1.40;99.90
14723;DHT22;7452;55.594;12.986;2022-12-18T12:43:58;1.40;99.90
14723;DHT22;7452;55.594;12.986;2022-12-18T12:46:26;1.40;99.90
14723;DHT22;7452;55.594;12.986;2022-12-18T12:49:02;1.30;99.90
14723;DHT22;7452;55.594;12.986;2022-12-18T12:51:33;1.30;99.90
14723;DHT22;7452;55.594;12.986;2022-12-18T12:54:22;1.30;99.90
14723;DHT22;7452;55.594;12.986;2022-12-18T12:57:01;1.20;99.90
14723;DHT22;7452;55.594;12.986;2022-12-18T12:59:37;1.10;99.90
14723;DHT22;7452;55.594;12.986;2022-12-18T13:02:20;1.10;99.90
14723;DHT22;7452;55.594;12.986;2022-12-18T13:05:14;1.10;99.90
14723;DHT22;7452;55.594;12.986;2022-12-18T13:07:51;1.10;99.90
14723;DHT22;7452;55.594;12.986;2022-12-18T13:10:36;1.10;99.90
14723;DHT22;7452;55.594;12.986;2022-12-18T13:13:08;1.00;99.90
14723;DHT22;7452;55.594;12.986;2022-12-18T13:15:39;1.00;99.90
14723;DHT22;7452;55.594;12.986;2022-12-18T13:18:18;1.00;99.90
14723;DHT22;7452;55.594;12.986;2022-12-18T13:21:02;1.00;99.90
14723;DHT22;7452;55.594;12.986;2022-12-18T13:23:34;1.00;99.90
14723;DHT22;7452;55.594;12.986;2022-12-18T13:26:31;1.00;99.90
14723;DHT22;7452;55.594;12.986;2022-12-18T13:29:02;1.00;99.90
14723;DHT22;7452;55.594;12.986;2022-12-18T13:31:59;1.00;99.90
14723;DHT22;7452;55.594;12.986;2022-12-18T13:34:30;0.90;99.90
14723;DHT22;7452;55.594;12.986;2022-12-18T13:46:23;0.90;99.90
14723;DHT22;7452;55.594;12.986;2022-12-18T13:48:55;0.90;99.90
14723;DHT22;7452;55.594;12.986;2022-12-18T13:51:40;0.90;99.90
14723;DHT22;7452;55.594;12.986;2022-12-18T13:54:19;0.90;99.90
14723;DHT22;7452;55.594;12.986;2022-12-18T13:56:53;0.90;99.90
14723;DHT22;7452;55.594;12.986;2022-12-18T13:59:23;0.90;99.90
14723;DHT22;7452;55.594;12.986;2022-12-18T14:01:54;1.00;99.90
14723;DHT22;7452;55.594;12.986;2022-12-18T14:04:25;0.90;99.90
14723;DHT22;7452;55.594;12.986;2022-12-18T14:07:03;0.90;99.90
14723;DHT22;7452;55.594;12.986;2022-12-18T14:09:39;0.90;99.90
14723;DHT22;7452;55.594;12.986;2022-12-18T14:12:15;0.90;99.90
14723;DHT22;7452;55.594;12.986;2022-12-18T14:15:00;0.90;99.90
14723;DHT22;7452;55.594;12.986;2022-12-18T14:17:31;0.80;99.90
14723;DHT22;7452;55.594;12.986;2022-12-18T14:20:00;0.80;99.90
14723;DHT22;7452;55.594;12.986;2022-12-18T14:22:29;0.80;99.90
14723;DHT22;7452;55.594;12.986;2022-12-18T14:25:14;0.70;99.90
14723;DHT22;7452;55.594;12.986;2022-12-18T14:27:53;0.70;99.90
14723;DHT22;7452;55.594;12.986;2022-12-18T14:30:25;0.60;99.90
14723;DHT22;7452;55.594;12.986;2022-12-18T14:33:00;0.60;99.90
14723;DHT22;7452;55.594;12.986;2022-12-18T14:35:36;0.50;99.90
14723;DHT22;7452;55.594;12.986;2022-12-18T14:38:24;0.50;99.90
14723;DHT22;7452;55.594;12.986;2022-12-18T14:40:59;0.50;99.90
14723;DHT22;7452;55.594;12.986;2022-12-18T14:43:29;0.40;99.90
14723;DHT22;7452;55.594;12.986;2022-12-18T14:45:58;0.40;99.90
14723;DHT22;7452;55.594;12.986;2022-12-18T14:48:35;0.40;99.90
14723;DHT22;7452;55.594;12.986;2022-12-18T14:51:06;0.40;99.90
14723;DHT22;7452;55.594;12.986;2022-12-18T14:53:43;0.40;99.90
14723;DHT22;7452;55.594;12.986;2022-12-18T14:56:21;0.40;99.90
14723;DHT22;7452;55.594;12.986;2022-12-18T14:58:55;0.30;99.90
14723;DHT22;7452;55.594;12.986;2022-12-18T15:01:27;0.30;99.90
14723;DHT22;7452;55.594;12.986;2022-12-18T15:03:56;0.30;99.90
14723;DHT22;7452;55.594;12.986;2022-12-18T15:06:34;0.30;99.90
14723;DHT22;7452;55.594;12.986;2022-12-18T15:09:22;0.40;99.90
14723;DHT22;7452;55.594;12.986;2022-12-18T15:12:04;0.30;99.90
14723;DHT22;7452;55.594;12.986;2022-12-18T15:14:45;0.30;99.90
14723;DHT22;7452;55.594;12.986;2022-12-18T15:17:17;0.30;99.90
14723;DHT22;7452;55.594;12.986;2022-12-18T15:19:58;0.20;99.90
14723;DHT22;7452;55.594;12.986;2022-12-18T15:22:33;0.20;99.90
14723;DHT22;7452;55.594;12.986;2022-12-18T15:25:21;0.20;99.90
14723;DHT22;7452;55.594;12.986;2022-12-18T15:28:02;0.20;99.90
14723;DHT22;7452;55.594;12.986;2022-12-18T15:30:58;0.20;99.90
14723;DHT22;7452;55.594;12.986;2022-12-18T15:33:35;0.20;99.90
14723;DHT22;7452;55.594;12.986;2022-12-18T15:36:09;0.10;99.90
14723;DHT22;7452;55.594;12.986;2022-12-18T15:38:49;0.10;99.90
14723;DHT22;7452;55.594;12.986;2022-12-18T15:41:27;0.10;99.90
14723;DHT22;7452;55.594;12.986;2022-12-18T15:43:56;0.20;99.90
14723;DHT22;7452;55.594;12.986;2022-12-18T15:46:29;0.20;99.90
14723;DHT22;7452;55.594;12.986;2022-12-18T15:48:59;0.10;99.90
14723;DHT22;7452;55.594;12.986;2022-12-18T15:51:29;0.10;99.90
14723;DHT22;7452;55.594;12.986;2022-12-18T15:54:03;0.10;99.90
14723;DHT22;7452;55.594;12.986;2022-12-18T15:56:32;0.10;99.90
14723;DHT22;7452;55.594;12.986;2022-12-18T15:59:20;0.10;99.90
14723;DHT22;7452;55.594;12.986;2022-12-18T16:01:57;0.10;99.90
14723;DHT22;7452;55.594;12.986;2022-12-18T16:04:27;0.10;99.90
14723;DHT22;7452;55.594;12.986;2022-12-18T16:06:56;0.10;99.90
14723;DHT22;7452;55.594;12.986;2022-12-18T16:09:24;0.10;99.90
14723;DHT22;7452;55.594;12.986;2022-12-18T16:12:23;0.10;99.90
14723;DHT22;7452;55.594;12.986;2022-12-18T16:14:58;0.00;99.90
14723;DHT22;7452;55.594;12.986;2022-12-18T16:17:37;0.00;99.90
14723;DHT22;7452;55.594;12.986;2022-12-18T16:20:27;0.00;99.90
14723;DHT22;7452;55.594;12.986;2022-12-18T16:23:13;0.00;99.90
14723;DHT22;7452;55.594;12.986;2022-12-18T16:25:41;0.00;99.90
14723;DHT22;7452;55.594;12.986;2022-12-18T16:28:25;-0.10;99.90
14723;DHT22;7452;55.594;12.986;2022-12-18T16:31:08;-0.10;99.90
14723;DHT22;7452;55.594;12.986;2022-12-18T16:34:24;-0.20;99.90
14723;DHT22;7452;55.594;12.986;2022-12-18T16:36:55;-0.20;99.90
14723;DHT22;7452;55.594;12.986;2022-12-18T16:39:23;-0.10;99.90
14723;DHT22;7452;55.594;12.986;2022-12-18T16:41:56;-0.10;99.90
14723;DHT22;7452;55.594;12.986;2022-12-18T16:44:30;-0.20;99.90
14723;DHT22;7452;55.594;12.986;2022-12-18T16:46:59;-0.30;99.90
14723;DHT22;7452;55.594;12.986;2022-12-18T16:49:46;-0.30;99.90
14723;DHT22;7452;55.594;12.986;2022-12-18T16:52:26;-0.40;99.90
14723;DHT22;7452;55.594;12.986;2022-12-18T16:54:55;-0.40;99.90